Time;durP1;ratioP1;P1;durP2;ratioP2;P2;SDS_P1;SDS_P2;PMS_P1;PMS_P2;Temp;Humidity;BMP_temperature;BMP_pressure;BME280_temperature;BME280_humidity;BME280_pressure;Samples;Min_cycle;Max_cycle;Signal;HPM_P1;HPM_P2
2021/12/17 00:07:22;;;;;;;44.05;34.33;;;;;;;7.02;100.00;103832.91;5070095;28;20033;-68
2021/12/17 00:09:48;;;;;;;45.53;35.55;;;;;;;7.03;100.00;103832.09;5073704;28;20079;-69
2021/12/17 00:12:17;;;;;;;42.78;34.55;;;;;;;7.05;100.00;103827.84;5070181;28;20476;-68
2021/12/17 00:14:47;;;;;;;45.40;35.38;;;;;;;7.19;100.00;103826.13;5073685;28;20020;-70
2021/12/17 00:17:16;;;;;;;46.03;36.28;;;;;;;7.19;100.00;103824.41;5105713;28;20490;-71
2021/12/17 00:49:35;;;;;;;52.78;40.13;;;;;;;6.94;100.00;103814.00;5073048;28;20032;-68
2021/12/17 00:52:02;;;;;;;56.00;40.85;;;;;;;6.90;100.00;103814.59;5073176;28;20031;-69
2021/12/17 00:54:40;;;;;;;53.33;41.38;;;;;;;6.86;100.00;103816.13;5072810;28;20035;-69
2021/12/17 00:57:08;;;;;;;56.25;41.45;;;;;;;6.79;100.00;103809.53;5072640;28;20035;-68
2021/12/17 00:59:35;;;;;;;54.95;41.00;;;;;;;6.79;100.00;103812.16;5072257;28;20425;-68
2021/12/17 01:02:05;;;;;;;54.10;41.22;;;;;;;6.76;100.00;103817.22;5072045;28;20040;-68
2021/12/17 01:04:32;;;;;;;52.90;39.60;;;;;;;6.73;100.00;103814.38;5072547;28;20463;-69
2021/12/17 01:06:58;;;;;;;52.65;40.55;;;;;;;6.77;100.00;103808.53;5072617;28;20032;-69
2021/12/17 01:09:25;;;;;;;54.08;40.28;;;;;;;6.79;100.00;103803.38;5072697;28;20545;-68
2021/12/17 01:11:52;;;;;;;52.55;40.22;;;;;;;6.78;100.00;103804.16;5072560;28;20082;-67
2021/12/17 01:14:18;;;;;;;54.25;40.85;;;;;;;6.84;100.00;103801.03;5072515;28;20494;-69
2021/12/17 01:16:43;;;;;;;56.95;40.83;;;;;;;6.88;100.00;103801.34;5072901;28;20029;-68
2021/12/17 01:22:01;;;;;;;49.08;37.55;;;;;;;6.95;100.00;103800.94;5072638;28;20044;-68
2021/12/17 01:24:35;;;;;;;53.97;39.77;;;;;;;7.00;100.00;103797.72;5072636;28;20035;-69
2021/12/17 01:35:29;;;;;;;55.83;39.63;;;;;;;7.09;100.00;103793.97;5072526;28;20094;-66
2021/12/17 01:41:12;;;;;;;55.45;39.50;;;;;;;7.13;100.00;103797.69;5069041;28;20039;-66
2021/12/17 01:43:43;;;;;;;54.42;38.50;;;;;;;7.08;100.00;103791.25;5072348;28;20028;-66
2021/12/17 01:46:10;;;;;;;57.60;40.28;;;;;;;7.07;100.00;103794.69;5072362;28;20024;-66
2021/12/17 01:49:25;;;;;;;57.15;39.78;;;;;;;7.06;100.00;103795.47;5072458;28;20044;-67
2021/12/17 01:59:51;;;;;;;57.20;39.42;;;;;;;7.09;100.00;103793.03;5068307;28;21337;-66
2021/12/17 02:02:16;;;;;;;60.42;42.13;;;;;;;7.15;100.00;103797.00;5072381;28;20394;-66
2021/12/17 02:04:43;;;;;;;61.45;42.20;;;;;;;7.17;100.00;103791.84;5072250;28;20111;-71
2021/12/17 02:07:09;;;;;;;63.25;41.05;;;;;;;7.13;100.00;103790.69;5072349;28;20032;-71
2021/12/17 02:32:00;;;;;;;59.35;38.83;;;;;;;7.08;100.00;103802.66;4974630;28;20113;-69
2021/12/17 02:34:53;;;;;;;62.65;40.67;;;;;;;7.04;100.00;103811.16;4974298;28;20490;-71
2021/12/17 02:37:20;;;;;;;69.15;41.20;;;;;;;7.05;100.00;103804.16;4974169;28;20050;-71
2021/12/17 02:47:40;;;;;;;71.40;40.40;;;;;;;7.07;100.00;103807.81;4974548;28;20078;-70
2021/12/17 02:50:08;;;;;;;70.05;41.25;;;;;;;7.05;100.00;103804.16;4990569;28;20583;-70
2021/12/17 02:52:36;;;;;;;72.72;41.88;;;;;;;7.04;100.00;103800.63;4974169;28;20069;-70
2021/12/17 02:55:05;;;;;;;68.18;41.28;;;;;;;7.07;100.00;103800.84;4973944;28;20030;-70
2021/12/17 02:57:31;;;;;;;69.82;41.03;;;;;;;7.05;100.00;103791.00;4974054;28;20047;-70
2021/12/17 02:59:58;;;;;;;72.55;41.75;;;;;;;7.07;100.00;103795.56;4973855;28;20117;-70
2021/12/17 03:02:27;;;;;;;75.30;43.10;;;;;;;7.05;100.00;103799.84;4973928;28;20053;-69
2021/12/17 03:04:53;;;;;;;72.57;42.65;;;;;;;7.06;100.00;103798.09;4974108;28;20089;-69
2021/12/17 03:07:19;;;;;;;74.75;43.17;;;;;;;7.05;100.00;103793.63;4973910;28;20519;-69
2021/12/17 03:10:04;;;;;;;75.47;42.75;;;;;;;7.07;100.00;103800.84;5058786;28;20075;-69
2021/12/17 03:12:44;;;;;;;78.05;43.58;;;;;;;7.07;100.00;103794.69;5072642;28;20028;-69
2021/12/17 03:15:30;;;;;;;78.10;41.70;;;;;;;7.07;100.00;103805.19;5074727;28;20032;-70
2021/12/17 03:23:40;;;;;;;92.35;43.08;;;;;;;7.07;100.00;103806.09;5072213;28;20494;-69
2021/12/17 03:26:13;;;;;;;96.05;42.42;;;;;;;7.03;100.00;103813.69;5072983;28;20024;-69
2021/12/17 03:28:41;;;;;;;98.72;43.35;;;;;;;6.98;100.00;103816.91;5074496;28;20510;-69
2021/12/17 03:31:08;;;;;;;104.68;43.63;;;;;;;6.96;100.00;103813.28;5074182;28;20495;-70
2021/12/17 03:33:34;;;;;;;109.68;44.13;;;;;;;6.94;100.00;103808.72;5074433;28;20036;-70
2021/12/17 03:36:00;;;;;;;112.60;44.25;;;;;;;6.94;100.00;103814.88;5074217;28;20515;-69
2021/12/17 03:38:27;;;;;;;112.13;42.92;;;;;;;6.95;100.00;103806.19;5074143;28;20109;-68
2021/12/17 03:41:04;;;;;;;115.68;42.50;;;;;;;7.01;100.00;103808.31;5074019;28;20035;-70
2021/12/17 03:43:31;;;;;;;109.45;40.47;;;;;;;6.98;100.00;103809.03;5074423;28;20017;-69
2021/12/17 03:45:56;;;;;;;111.78;41.40;;;;;;;6.97;100.00;103815.13;5074234;28;20027;-70
2021/12/17 03:48:22;;;;;;;121.50;42.58;;;;;;;7.01;100.00;103807.44;5073975;28;20383;-69
2021/12/17 03:50:47;;;;;;;126.82;42.92;;;;;;;7.00;100.00;103811.75;5074162;28;20033;-69
2021/12/17 03:53:13;;;;;;;128.05;42.20;;;;;;;6.99;100.00;103812.59;5074165;28;20371;-70
2021/12/17 03:55:38;;;;;;;125.43;40.95;;;;;;;7.00;100.00;103814.38;5074145;28;20030;-70
2021/12/17 03:58:04;;;;;;;126.40;41.40;;;;;;;6.98;100.00;103805.50;5074013;28;20434;-71
2021/12/17 04:00:30;;;;;;;132.30;42.50;;;;;;;6.99;100.00;103804.69;5073285;28;20140;-70
2021/12/17 04:02:56;;;;;;;137.20;42.85;;;;;;;6.98;100.00;103811.66;5073763;28;20368;-70
2021/12/17 04:05:22;;;;;;;142.43;44.35;;;;;;;6.98;100.00;103813.38;5073882;28;20055;-67
2021/12/17 04:07:48;;;;;;;154.40;46.20;;;;;;;6.92;100.00;103806.00;5073733;28;20431;-66
2021/12/17 04:10:17;;;;;;;151.85;45.33;;;;;;;6.93;100.00;103806.91;5073931;28;20035;-71
2021/12/17 04:12:56;;;;;;;151.07;43.13;;;;;;;6.92;100.00;103799.84;5073714;28;20023;-71
2021/12/17 04:15:34;;;;;;;152.77;46.70;;;;;;;6.96;100.00;103796.56;5073665;28;20044;-71
2021/12/17 04:18:00;;;;;;;149.55;44.45;;;;;;;6.92;100.00;103800.75;5070903;28;20467;-71
2021/12/17 04:20:25;;;;;;;155.40;44.40;;;;;;;6.91;100.00;103804.16;5073176;28;20024;-69
2021/12/17 04:22:51;;;;;;;172.60;46.88;;;;;;;6.89;100.00;103799.63;5073485;28;20039;-71
2021/12/17 04:25:16;;;;;;;162.68;47.83;;;;;;;6.94;100.00;103801.75;5073087;28;20028;-69
2021/12/17 04:27:41;;;;;;;175.55;48.83;;;;;;;6.92;100.00;103810.34;5071793;28;20437;-70
2021/12/17 04:30:07;;;;;;;166.15;47.25;;;;;;;6.93;100.00;103801.63;5073346;28;20098;-71
2021/12/17 04:32:32;;;;;;;175.13;48.83;;;;;;;6.93;100.00;103802.56;5073224;28;20025;-71
2021/12/17 04:34:58;;;;;;;174.55;50.13;;;;;;;6.93;100.00;103802.56;5073002;28;20028;-70
2021/12/17 04:37:23;;;;;;;179.32;49.50;;;;;;;6.93;100.00;103807.81;5072385;28;20048;-71
2021/12/17 04:39:50;;;;;;;177.98;50.25;;;;;;;6.94;100.00;103811.34;5072944;28;20044;-71
2021/12/17 04:42:23;;;;;;;189.00;49.97;;;;;;;6.93;100.00;103810.47;5072832;28;20032;-70
2021/12/17 04:44:53;;;;;;;179.95;49.95;;;;;;;6.94;100.00;103801.75;5069104;28;20043;-71
2021/12/17 04:57:59;;;;;;;207.48;52.13;;;;;;;6.96;100.00;103796.56;5070297;28;20097;-70
2021/12/17 05:00:28;;;;;;;204.45;52.38;;;;;;;6.93;100.00;103801.63;5072776;28;20052;-70
2021/12/17 05:02:56;;;;;;;187.30;52.20;;;;;;;6.94;100.00;103793.84;5072775;28;20376;-71
2021/12/17 05:05:29;;;;;;;199.68;55.75;;;;;;;6.95;100.00;103800.94;5072544;28;20048;-72
2021/12/17 05:08:00;;;;;;;;;;;;;;;6.98;100.00;103803.75;5070092;28;20134;-71
2021/12/17 05:18:42;;;;;;;159.65;46.58;;;;;;;6.95;100.00;103798.31;5070997;28;20469;-72
2021/12/17 05:21:09;;;;;;;163.55;45.88;;;;;;;6.95;100.00;103803.56;5072451;28;20444;-72
2021/12/17 05:23:39;;;;;;;153.70;44.50;;;;;;;6.96;100.00;103800.13;5072302;28;20024;-71
2021/12/17 05:26:08;;;;;;;148.20;43.35;;;;;;;6.95;100.00;103803.56;5072452;28;20444;-72
2021/12/17 05:28:34;;;;;;;142.38;42.90;;;;;;;6.94;100.00;103804.38;5072455;28;20024;-72
2021/12/17 05:30:59;;;;;;;140.20;41.97;;;;;;;6.96;100.00;103812.34;5104671;28;20021;-70
2021/12/17 05:33:26;;;;;;;141.48;40.15;;;;;;;6.98;100.00;103810.75;5072492;28;20093;-71
2021/12/17 05:35:53;;;;;;;137.63;41.35;;;;;;;6.96;100.00;103815.91;5072265;28;20557;-72
2021/12/17 05:38:21;;;;;;;139.27;40.67;;;;;;;6.96;100.00;103814.97;5068296;28;20028;-72
2021/12/17 05:40:47;;;;;;;133.40;39.83;;;;;;;6.95;100.00;103818.44;5072342;28;20025;-71
2021/12/17 05:43:15;;;;;;;138.15;40.85;;;;;;;6.95;100.00;103827.25;5072067;28;20028;-69
2021/12/17 05:48:09;;;;;;;142.60;39.83;;;;;;;6.93;100.00;103818.34;5073421;28;20051;-69
2021/12/17 05:50:37;;;;;;;137.45;40.00;;;;;;;6.93;100.00;103813.09;5076477;28;20107;-68
2021/12/17 05:53:04;;;;;;;140.27;41.00;;;;;;;6.96;100.00;103804.47;5076109;28;20025;-70
2021/12/17 05:55:29;;;;;;;143.05;42.35;;;;;;;6.93;100.00;103807.81;5076334;28;20028;-71
2021/12/17 05:57:55;;;;;;;142.35;42.85;;;;;;;6.97;100.00;103808.94;5075884;28;20082;-73
2021/12/17 06:00:21;;;;;;;146.98;42.10;;;;;;;6.95;100.00;103816.72;5075706;28;20112;-72
2021/12/17 06:02:47;;;;;;;132.05;41.03;;;;;;;7.01;100.00;103810.06;5076167;28;20027;-72
2021/12/17 06:05:14;;;;;;;133.07;38.53;;;;;;;6.97;100.00;103820.38;5075923;28;20111;-71
2021/12/17 06:07:40;;;;;;;132.63;40.22;;;;;;;7.00;100.00;103821.38;5075768;28;20378;-72
2021/12/17 06:10:07;;;;;;;129.60;39.80;;;;;;;7.03;100.00;103824.22;5076250;28;20017;-72
2021/12/17 06:12:33;;;;;;;131.60;40.47;;;;;;;7.02;100.00;103827.63;5075923;28;20020;-71
2021/12/17 06:14:58;;;;;;;138.18;40.58;;;;;;;7.01;100.00;103831.09;5075638;28;20066;-71
2021/12/17 06:17:23;;;;;;;130.05;38.50;;;;;;;6.97;100.00;103830.91;5075846;28;20025;-72
2021/12/17 06:19:49;;;;;;;129.25;37.88;;;;;;;7.00;100.00;103822.28;5075587;28;20028;-72
2021/12/17 06:22:15;;;;;;;131.48;38.90;;;;;;;6.97;100.00;103828.28;5075844;28;20028;-72
2021/12/17 06:24:45;;;;;;;119.13;36.15;;;;;;;6.95;100.00;103832.50;5075560;28;20463;-72
2021/12/17 06:27:16;;;;;;;120.28;36.83;;;;;;;6.95;100.00;103837.75;5075739;28;20029;-72
2021/12/17 06:29:41;;;;;;;127.75;40.90;;;;;;;6.97;100.00;103841.41;5074380;28;20104;-72
2021/12/17 06:32:07;;;;;;;127.13;39.53;;;;;;;6.96;100.00;103847.47;5075552;28;20468;-72
2021/12/17 06:34:33;;;;;;;125.05;38.28;;;;;;;6.95;100.00;103844.75;5075335;28;20031;-72
2021/12/17 06:36:58;;;;;;;137.82;37.50;;;;;;;6.89;100.00;103834.72;5075385;28;20047;-72
2021/12/17 06:39:26;;;;;;;123.55;37.05;;;;;;;6.89;100.00;103842.63;5075520;28;20024;-69
2021/12/17 06:41:52;;;;;;;135.50;35.80;;;;;;;6.87;100.00;103846.84;5101353;28;20036;-70
2021/12/17 06:44:22;;;;;;;130.65;35.88;;;;;;;6.86;100.00;103842.41;5072020;28;20039;-71
2021/12/17 06:49:54;;;;;;;111.03;31.55;;;;;;;6.87;100.00;103836.31;5073017;28;20064;-70
2021/12/17 07:10:43;;;;;;;95.38;28.38;;;;;;;6.88;100.00;103840.78;5069533;28;20029;-68
2021/12/17 07:21:39;;;;;;;94.22;27.98;;;;;;;6.83;100.00;103852.72;5071068;28;20048;-71
2021/12/17 07:35:01;;;;;;;83.43;25.63;;;;;;;6.86;100.00;103842.41;5071249;28;20060;-69
2021/12/17 07:39:53;;;;;;;85.28;25.45;;;;;;;6.83;100.00;103830.75;5071411;28;20036;-70
2021/12/17 07:42:18;;;;;;;86.65;25.85;;;;;;;6.83;100.00;103826.44;5071525;28;20028;-69
2021/12/17 07:44:44;;;;;;;82.25;25.50;;;;;;;6.84;100.00;103825.59;5071343;28;20095;-69
2021/12/17 07:47:09;;;;;;;81.53;26.02;;;;;;;6.93;100.00;103831.50;5071758;28;20024;-70
2021/12/17 07:49:34;;;;;;;87.57;27.13;;;;;;;6.88;100.00;103830.25;5071137;28;20025;-70
2021/12/17 07:52:00;;;;;;;79.60;28.10;;;;;;;6.92;100.00;103837.56;5070863;28;20036;-68
2021/12/17 07:54:25;;;;;;;92.47;28.35;;;;;;;6.90;100.00;103830.38;5070637;28;20107;-70
2021/12/17 07:56:51;;;;;;;84.60;32.97;;;;;;;6.93;100.00;103833.19;5071151;28;20025;-68
2021/12/17 07:59:16;;;;;;;93.35;35.83;;;;;;;6.90;100.00;103827.72;5071266;28;20052;-68
2021/12/17 08:01:41;;;;;;;86.47;36.70;;;;;;;6.92;100.00;103828.78;5071212;28;20076;-69
2021/12/17 08:04:08;;;;;;;80.32;37.22;;;;;;;6.95;100.00;103831.59;5070952;28;20036;-69
2021/12/17 08:06:34;;;;;;;86.22;39.28;;;;;;;6.92;100.00;103834.94;5070559;28;20101;-68
2021/12/17 08:09:00;;;;;;;80.75;36.95;;;;;;;6.94;100.00;103833.28;5071439;28;20039;-69
2021/12/17 08:11:26;;;;;;;79.05;38.05;;;;;;;6.93;100.00;103839.38;5070991;28;20012;-70
2021/12/17 08:13:54;;;;;;;75.75;37.08;;;;;;;6.98;100.00;103839.69;5071046;28;20419;-72
2021/12/17 08:26:57;;;;;;;74.68;38.50;;;;;;;6.92;100.00;103858.59;5066511;28;20435;-70
2021/12/17 08:31:50;;;;;;;72.13;39.78;;;;;;;6.90;100.00;103849.72;5071511;28;20093;-71
2021/12/17 08:34:16;;;;;;;75.55;39.45;;;;;;;6.85;100.00;103861.63;5070806;28;20024;-72
2021/12/17 08:36:41;;;;;;;78.05;39.95;;;;;;;6.81;100.00;103870.09;5070460;28;20036;-72
2021/12/17 08:39:07;;;;;;;71.20;39.40;;;;;;;6.80;100.00;103863.94;5070894;28;20360;-70
2021/12/17 08:41:32;;;;;;;79.50;40.72;;;;;;;6.79;100.00;103867.38;5070148;28;20024;-73
2021/12/17 08:43:57;;;;;;;73.30;39.05;;;;;;;6.85;100.00;103872.13;5070710;28;20558;-73
2021/12/17 08:46:23;;;;;;;78.63;40.30;;;;;;;6.82;100.00;103869.31;5070179;28;20111;-67
2021/12/17 08:48:48;;;;;;;74.43;40.88;;;;;;;6.86;100.00;103866.09;5072267;28;20073;-68
2021/12/17 08:51:14;;;;;;;72.03;38.28;;;;;;;6.91;100.00;103863.75;5072516;28;20368;-68
2021/12/17 08:53:40;;;;;;;71.45;38.80;;;;;;;6.93;100.00;103864.75;5072376;28;20027;-67
2021/12/17 08:56:05;;;;;;;76.05;38.70;;;;;;;6.89;100.00;103862.75;5072921;28;20024;-68
2021/12/17 08:58:31;;;;;;;71.63;37.90;;;;;;;6.96;100.00;103849.19;5071536;28;20078;-67
2021/12/17 09:00:57;;;;;;;74.38;38.30;;;;;;;6.97;100.00;103851.00;5072260;28;20513;-67
2021/12/17 09:03:22;;;;;;;74.45;36.28;;;;;;;6.92;100.00;103858.59;5072732;28;20067;-68
2021/12/17 09:05:49;;;;;;;74.70;37.47;;;;;;;6.91;100.00;103856.75;5072550;28;20037;-67
2021/12/17 09:08:15;;;;;;;73.65;35.90;;;;;;;6.94;100.00;103862.22;5072572;28;20020;-67
2021/12/17 09:10:44;;;;;;;73.15;36.78;;;;;;;7.04;100.00;103857.59;5072692;28;20021;-67
2021/12/17 09:13:10;;;;;;;72.70;37.40;;;;;;;7.05;100.00;103865.59;5071076;28;20025;-68
2021/12/17 09:15:35;;;;;;;65.72;35.28;;;;;;;7.10;100.00;103871.16;5072643;28;20356;-67
2021/12/17 09:18:01;;;;;;;70.50;36.72;;;;;;;7.10;100.00;103868.53;5072927;28;20468;-67
2021/12/17 09:20:27;;;;;;;72.47;36.78;;;;;;;7.06;100.00;103872.69;5072432;28;20025;-68
2021/12/17 09:22:52;;;;;;;75.05;37.47;;;;;;;7.11;100.00;103884.41;5072144;28;20093;-67
2021/12/17 09:25:18;;;;;;;76.78;37.75;;;;;;;7.08;100.00;103888.56;5072562;28;20074;-67
2021/12/17 09:27:44;;;;;;;69.15;35.50;;;;;;;7.04;100.00;103894.44;5072391;28;20028;-67
2021/12/17 09:30:15;;;;;;;76.43;37.33;;;;;;;7.02;100.00;103894.34;5072293;28;20029;-67
2021/12/17 09:32:42;;;;;;;71.28;35.83;;;;;;;7.09;100.00;103903.53;5072420;28;20091;-68
2021/12/17 09:35:08;;;;;;;74.47;37.58;;;;;;;7.09;100.00;103903.53;5072241;28;20032;-68
2021/12/17 09:37:34;;;;;;;80.68;37.63;;;;;;;7.05;100.00;103907.69;5072263;28;20024;-67
2021/12/17 09:40:00;;;;;;;79.63;37.38;;;;;;;7.07;100.00;103906.06;5072628;28;20089;-67
2021/12/17 09:42:27;;;;;;;83.13;38.38;;;;;;;7.05;100.00;103905.06;5072288;28;20020;-67
2021/12/17 09:44:52;;;;;;;81.53;37.55;;;;;;;7.08;100.00;103907.00;5072038;28;20036;-68
2021/12/17 09:47:18;;;;;;;75.03;36.40;;;;;;;7.12;100.00;103909.94;5072440;28;20032;-73
2021/12/17 09:49:43;;;;;;;88.70;38.55;;;;;;;7.11;100.00;103907.19;5072229;28;20029;-73
2021/12/17 09:52:09;;;;;;;88.43;39.13;;;;;;;7.12;100.00;103909.00;5071142;28;20425;-72
2021/12/17 09:54:36;;;;;;;77.13;35.78;;;;;;;7.15;100.00;103927.66;5072349;28;20016;-72
2021/12/17 09:57:02;;;;;;;75.13;35.60;;;;;;;7.19;100.00;103924.38;5072116;28;20474;-71
2021/12/17 09:59:27;;;;;;;76.80;35.90;;;;;;;7.22;100.00;103926.31;5071926;28;20035;-70
2021/12/17 10:01:52;;;;;;;78.97;36.47;;;;;;;7.20;100.00;103920.97;5072215;28;20045;-69
2021/12/17 10:04:26;;;;;;;81.50;37.22;;;;;;;7.21;100.00;103920.16;5070371;28;20048;-71
2021/12/17 10:06:53;;;;;;;76.45;35.15;;;;;;;7.26;100.00;103923.09;5072312;28;20035;-73
2021/12/17 10:09:18;;;;;;;72.60;35.40;;;;;;;7.25;100.00;103927.47;5072203;28;20032;-71
2021/12/17 10:12:05;;;;;;;74.00;34.75;;;;;;;7.30;100.00;103928.66;5071965;28;20024;-70
2021/12/17 10:14:31;;;;;;;72.03;34.65;;;;;;;7.35;100.00;103925.44;5068743;28;20478;-72
2021/12/17 10:17:11;;;;;;;73.75;34.33;;;;;;;7.35;100.00;103922.78;5070686;28;20025;-72
2021/12/17 10:19:47;;;;;;;71.25;33.78;;;;;;;7.30;100.00;103925.13;5068283;28;20024;-68
2021/12/17 10:22:16;;;;;;;79.60;34.38;;;;;;;7.32;100.00;103924.44;5068940;28;20115;-71
2021/12/17 10:25:03;;;;;;;73.85;34.65;;;;;;;7.37;100.00;103923.78;5064595;28;20029;-72
2021/12/17 10:27:35;;;;;;;73.18;34.80;;;;;;;7.38;100.00;103926.53;5042050;28;20072;-71
2021/12/17 10:30:13;;;;;;;73.57;34.83;;;;;;;7.41;100.00;103925.81;5042152;28;20116;-72
2021/12/17 10:32:42;;;;;;;71.78;32.53;;;;;;;7.42;100.00;103927.66;5044812;28;20037;-73
2021/12/17 10:35:14;;;;;;;69.95;32.72;;;;;;;7.45;100.00;103931.38;5044226;28;20024;-71
2021/12/17 10:37:45;;;;;;;65.83;31.77;;;;;;;7.48;100.00;103930.69;5043901;28;20690;-72
2021/12/17 10:40:37;;;;;;;64.78;31.67;;;;;;;7.54;100.00;103920.56;5046702;28;20353;-70
2021/12/17 10:43:14;;;;;;;64.97;29.15;;;;;;;7.58;100.00;103917.31;5044970;28;20033;-67
2021/12/17 10:45:44;;;;;;;59.38;27.25;;;;;;;7.64;100.00;103917.72;5048746;28;20115;-70
2021/12/17 10:50:45;;;;;;;52.10;23.15;;;;;;;7.61;100.00;103927.16;5048568;28;20041;-72
2021/12/17 10:53:11;;;;;;;53.42;22.95;;;;;;;7.60;100.00;103926.25;5050461;28;20040;-70
2021/12/17 10:55:36;;;;;;;50.85;20.83;;;;;;;7.63;100.00;103929.09;5049851;28;20060;-70
2021/12/17 10:58:03;;;;;;;48.58;19.73;;;;;;;7.62;100.00;103935.16;5050374;28;20108;-70
2021/12/17 11:00:28;;;;;;;46.50;19.63;;;;;;;7.61;100.00;103932.41;5049715;28;20443;-71
2021/12/17 11:02:55;;;;;;;49.08;19.65;;;;;;;7.62;100.00;103929.88;5049836;28;20043;-70
2021/12/17 11:05:22;;;;;;;48.00;20.80;;;;;;;7.61;100.00;103933.31;5068500;28;20044;-71
2021/12/17 11:07:49;;;;;;;49.03;19.38;;;;;;;7.60;100.00;103936.78;5071944;28;20059;-68
2021/12/17 11:10:16;;;;;;;46.10;19.75;;;;;;;7.62;100.00;103940.41;5072688;28;20100;-67
2021/12/17 11:12:44;;;;;;;47.70;19.02;;;;;;;7.59;100.00;103934.94;5073349;28;20483;-67
2021/12/17 11:15:22;;;;;;;45.35;18.00;;;;;;;7.61;100.00;103929.78;5074307;28;20068;-67
2021/12/17 11:17:55;;;;;;;44.97;19.08;;;;;;;7.66;100.00;103923.13;5070562;28;20170;-68
2021/12/17 11:20:40;;;;;;;46.95;19.58;;;;;;;7.74;100.00;103926.22;5070986;28;20028;-67
2021/12/17 11:23:12;;;;;;;45.97;19.20;;;;;;;7.73;100.00;103924.41;5072391;28;20048;-67
2021/12/17 11:25:41;;;;;;;45.03;18.92;;;;;;;7.75;100.00;103925.44;5071044;28;20037;-68
2021/12/17 11:28:08;;;;;;;43.35;17.92;;;;;;;7.70;100.00;103919.84;5072091;28;20113;-70
2021/12/17 11:30:37;;;;;;;47.22;19.02;;;;;;;7.73;100.00;103913.88;5069005;28;20035;-69
2021/12/17 11:33:04;;;;;;;44.13;18.35;;;;;;;7.70;100.00;103911.03;5071939;28;20035;-70
2021/12/17 11:35:31;;;;;;;48.97;19.10;;;;;;;7.72;100.00;103904.13;5072243;28;20028;-70
2021/12/17 11:38:00;;;;;;;45.42;19.60;;;;;;;7.75;100.00;103901.72;5071815;28;20067;-67
2021/12/17 11:40:59;;;;;;;47.08;19.35;;;;;;;7.81;100.00;103900.38;5071525;28;20904;-69
2021/12/17 11:43:49;;;;;;;44.33;18.52;;;;;;;7.88;100.00;103896.44;5022083;28;20042;-70
2021/12/17 11:46:16;;;;;;;42.88;19.15;;;;;;;7.94;100.00;103883.66;5026173;28;20028;-69
2021/12/17 11:48:50;;;;;;;44.38;19.10;;;;;;;7.94;100.00;103894.19;5020458;28;20034;-69
2021/12/17 11:51:19;;;;;;;44.67;19.45;;;;;;;7.97;100.00;103883.84;5029402;28;20040;-69
2021/12/17 11:53:55;;;;;;;42.33;18.80;;;;;;;7.99;100.00;103882.22;5029141;28;20451;-69
2021/12/17 11:56:42;;;;;;;44.40;19.42;;;;;;;8.08;100.00;103886.25;5029199;28;20033;-67
2021/12/17 11:59:31;;;;;;;42.72;19.38;;;;;;;8.05;100.00;103880.78;5029348;28;20186;-68
2021/12/17 12:02:01;;;;;;;43.78;20.10;;;;;;;8.05;100.00;103875.50;5028160;28;20184;-70
2021/12/17 12:04:33;;;;;;;42.30;19.27;;;;;;;8.01;100.00;103875.31;5038230;28;20475;-69
2021/12/17 12:07:24;;;;;;;41.80;19.67;;;;;;;8.03;100.00;103873.69;5023512;28;20041;-67
2021/12/17 12:10:04;;;;;;;41.30;19.65;;;;;;;8.03;100.00;103873.69;5019484;28;20675;-66
2021/12/17 12:12:40;;;;;;;40.85;19.75;;;;;;;8.00;100.00;103878.75;5017985;28;20030;-67
2021/12/17 12:15:21;;;;;;;41.05;20.00;;;;;;;8.02;100.00;103885.06;5020925;28;20033;-67
2021/12/17 12:18:06;;;;;;;41.92;20.83;;;;;;;8.03;100.00;103889.50;5019955;28;20038;-68
2021/12/17 12:20:53;;;;;;;41.78;20.63;;;;;;;8.00;100.00;103891.03;5059652;28;20060;-68
2021/12/17 12:23:25;;;;;;;41.40;20.45;;;;;;;7.93;100.00;103894.09;5068005;28;20124;-67
2021/12/17 12:26:04;;;;;;;41.22;20.05;;;;;;;7.96;100.00;103894.28;5068983;28;20016;-66
2021/12/17 12:28:45;;;;;;;39.67;19.65;;;;;;;7.94;100.00;103896.81;5068630;28;20036;-67
2021/12/17 12:31:16;;;;;;;39.00;19.23;;;;;;;7.90;100.00;103897.44;5068168;28;20031;-67
2021/12/17 12:34:10;;;;;;;39.55;19.70;;;;;;;7.92;100.00;103892.25;5067992;28;20032;-66
2021/12/17 12:36:54;;;;;;;40.47;20.00;;;;;;;7.85;100.00;103883.97;5066549;28;20544;-69
2021/12/17 12:39:29;;;;;;;40.80;19.90;;;;;;;7.82;100.00;103885.47;5067617;28;20017;-71
2021/12/17 12:41:54;;;;;;;36.35;19.02;;;;;;;7.83;100.00;103884.69;5067955;28;20529;-69
2021/12/17 12:44:21;;;;;;;34.63;16.10;;;;;;;7.80;100.00;103879.22;5068113;28;20029;-67
2021/12/17 12:46:51;;;;;;;32.15;16.17;;;;;;;7.79;100.00;103882.66;5068717;28;20108;-72
2021/12/17 12:49:56;;;;;;;32.92;16.08;;;;;;;7.81;100.00;103873.16;5069022;28;20482;-72
2021/12/17 12:52:27;;;;;;;31.95;14.52;;;;;;;7.78;100.00;103875.59;5068804;28;20055;-67
2021/12/17 12:54:57;;;;;;;30.77;14.00;;;;;;;7.77;100.00;103879.94;5069057;28;20514;-68
2021/12/17 12:57:31;;;;;;;29.25;13.23;;;;;;;7.74;100.00;103878.84;5069492;28;20039;-67
2021/12/17 13:00:00;;;;;;;28.25;13.15;;;;;;;7.71;100.00;103871.63;5062687;28;20025;-67
2021/12/17 13:02:27;;;;;;;26.00;11.38;;;;;;;7.63;100.00;103868.53;5070193;28;20044;-67
2021/12/17 13:04:54;;;;;;;26.42;11.55;;;;;;;7.61;100.00;103872.75;5070072;28;20132;-68
2021/12/17 13:07:42;;;;;;;26.65;12.75;;;;;;;7.64;100.00;103874.69;5070311;28;20025;-67
2021/12/17 13:10:13;;;;;;;32.08;14.55;;;;;;;7.59;100.00;103873.50;5070583;28;20036;-67
2021/12/17 13:12:41;;;;;;;34.25;15.10;;;;;;;7.54;100.00;103875.81;5072221;28;20040;-67
2021/12/17 13:15:17;;;;;;;32.45;15.45;;;;;;;7.53;100.00;103876.63;5072085;28;20036;-67
2021/12/17 13:20:27;;;;;;;35.10;16.25;;;;;;;7.53;100.00;103879.28;5072203;28;20107;-67
2021/12/17 13:20:55;;;;;;;35.25;16.23;;;;;;;7.44;100.00;103874.31;5069751;28;20048;-66
2021/12/17 13:23:22;;;;;;;35.47;17.80;;;;;;;7.46;100.00;103877.03;5072177;28;20028;-66
2021/12/17 13:26:01;;;;;;;35.08;16.88;;;;;;;7.43;100.00;103871.59;5070935;28;20029;-66
2021/12/17 13:28:27;;;;;;;36.45;17.77;;;;;;;7.38;100.00;103876.53;5072272;28;20028;-67
2021/12/17 13:30:56;;;;;;;36.38;17.30;;;;;;;7.40;100.00;103879.28;5072872;28;20035;-66
2021/12/17 13:33:22;;;;;;;35.42;17.70;;;;;;;7.40;100.00;103880.19;5072425;28;20029;-67
2021/12/17 13:35:47;;;;;;;36.33;17.38;;;;;;;7.39;100.00;103874.81;5072512;28;20019;-67
2021/12/17 13:38:13;;;;;;;30.10;14.05;;;;;;;7.39;100.00;103872.19;5072678;28;20364;-69
2021/12/17 13:40:39;;;;;;;28.30;13.30;;;;;;;7.35;100.00;103872.78;5072247;28;20089;-69
2021/12/17 13:43:04;;;;;;;25.27;11.30;;;;;;;7.33;100.00;103878.84;5072225;28;20035;-71
2021/12/17 13:45:30;;;;;;;24.95;10.88;;;;;;;7.30;100.00;103873.38;5072569;28;20017;-72
2021/12/17 13:47:57;;;;;;;24.00;10.68;;;;;;;7.24;100.00;103873.00;5072007;28;20031;-71
2021/12/17 13:50:30;;;;;;;23.38;10.68;;;;;;;7.25;100.00;103869.56;5072207;28;20028;-71
2021/12/17 13:53:00;;;;;;;23.85;10.63;;;;;;;7.22;100.00;103864.06;5072401;28;20032;-72
2021/12/17 13:55:37;;;;;;;23.50;10.95;;;;;;;7.25;100.00;103879.16;5072143;28;20032;-72
2021/12/17 13:58:08;;;;;;;23.90;10.60;;;;;;;7.19;100.00;103879.66;5068861;28;20042;-71
2021/12/17 14:00:37;;;;;;;24.77;12.15;;;;;;;7.15;100.00;103877.66;5068475;28;20032;-72
2021/12/17 14:03:04;;;;;;;27.17;14.57;;;;;;;7.13;100.00;103879.25;5072398;28;20017;-71
2021/12/17 14:06:08;;;;;;;23.95;12.23;;;;;;;7.12;100.00;103878.34;5067959;28;20487;-71
2021/12/17 14:08:21;;;;;;;21.63;9.50;;;;;;;7.12;100.00;103872.16;5070661;28;20051;-71
2021/12/17 14:10:49;;;;;;;22.02;9.13;;;;;;;7.12;100.00;103883.63;5075620;28;20029;-71
2021/12/17 14:13:20;;;;;;;21.25;8.52;;;;;;;7.15;100.00;103885.56;5076203;28;20079;-71